-JavaCPC -demo -emu -j-cpc_ani -tools 0-9 A B C D E F G H I J K L M N O P Q R S T U V W X Y Z roms
FILEDATESIZEDLs
KTris by Richard Wilson (PD).zip 2017-04-21 16:14 2 Kb137
Kaiser (G) (19xx).zip 2017-04-21 16:13 91 Kb153
Kane & Nebulus & Renaud - Marche a l'Ombre.zip 2017-04-21 16:13 95 Kb77
Kane (UK) (1986).zip 2017-04-21 16:13 28 Kb125
Kane (UK) (1986) [a1].zip 2017-04-21 16:13 80 Kb137
Kane (UK) (1986) [a2].zip 2017-04-21 16:13 38 Kb122
Kane (UK) (1986) [t1].zip 2017-04-21 16:13 38 Kb136
Karateka (F) (1986).zip 2017-04-21 16:13 50 Kb132
Karateka (F) (1986) [f1].zip 2017-04-21 16:13 50 Kb131
Karateka (F) (1986) [t1].zip 2017-04-21 16:13 50 Kb133
Karateka (F) (1990).zip 2017-04-21 16:13 49 Kb131
Karateka (F) (1990) [t1].zip 2017-04-21 16:13 49 Kb125
Karateka (F).dsk 2017-04-21 16:13 192 Kb138
Karl's Treasure Hunt (UK) (1984).zip 2017-04-21 16:13 11 Kb127
Karl's Treasure Hunt (UK) (1984) [a1].zip 2017-04-21 16:13 84 Kb128
Karl's Treasure Hunt (UK) (1984) [a2].zip 2017-04-21 16:13 11 Kb122
Karnov (E) - Disk 1A.dsk 2017-04-21 16:13 214 Kb126
Karnov (E) - Disk 1B.dsk 2017-04-21 16:13 214 Kb123
Karnov (UK) (1988) (Disk 1 of 2).zip 2017-04-21 16:13 73 Kb120
Karnov (UK) (1988) (Disk 1 of 2) [a1].zip 2017-04-21 16:13 56 Kb116
Karnov (UK) (1988) (Disk 1 of 2) [t1].zip 2017-04-21 16:13 159 Kb131
Karnov (UK) (1988) (Disk 1 of 2) [t2].zip 2017-04-21 16:13 73 Kb116
Karnov (UK) (1988) (Disk 2 of 2).zip 2017-04-21 16:13 62 Kb125
Karnov (UK) (1988) (Disk 2 of 2) [a1].zip 2017-04-21 16:13 105 Kb124
Karnov (UK) (1988) (Disk 2 of 2) [t2].zip 2017-04-21 16:13 62 Kb151
Kat Trap (E).dsk 2017-04-21 16:13 91 Kb125
Kat Trap (UK) (1987).zip 2017-04-21 16:13 34 Kb128
Keep Yourself Alive (F) (1987).zip 2017-04-21 16:13 19 Kb129
Kenny Dalglish Soccer Manager (E).cdt 2017-04-21 16:13 57 Kb139
Kenny Dalglish Soccer Manager (UK) (1989).zip 2017-04-21 16:13 25 Kb124
Kenny Dalglish Soccer Match (UK) (1990).zip 2017-04-21 16:13 29 Kb125
Kentilla (UK) (1985).zip 2017-04-21 16:13 23 Kb126
Kentilla (UK) (1985) [a1].zip 2017-04-21 16:13 30 Kb126
Kentucky Racing (E).cdt 2017-04-21 16:13 45 Kb133
Kentucky Racing (UK) (1990).zip 2017-04-21 16:13 24 Kb119
Kentucky Racing (UK) (1990) [f1].zip 2017-04-21 16:13 24 Kb130
Kessia (F) (19xx).zip 2017-04-21 16:13 72 Kb122
Kettle (E).dsk 2017-04-21 16:13 193 Kb122
Kettle (UK) (1986).zip 2017-04-21 16:13 21 Kb131
Kevin Thacker's CPC Guide (UK) (19xx) (PD) (Disk 1 of 2).zip 2017-04-21 16:13 47 Kb115
Kevin Thacker's CPC Guide (UK) (19xx) (PD) (Disk 2 of 2).zip 2017-04-21 16:13 41 Kb119
Key Factor, The (UK) (1985).zip 2017-04-21 16:13 13 Kb126
Kick Off (UK,F,G,S,I) (1990).zip 2017-04-21 16:13 27 Kb123
Kick Off (UK,F,G,S,I) (1990) [a1].zip 2017-04-21 16:13 131 Kb122
Kick Off (UK,F,G,S,I) (1990) [a2].zip 2017-04-21 16:13 31 Kb116
Kick Off 2 (E) - Disk 1A.dsk 2017-04-21 16:13 178 Kb139
Kick Off 2 (E) - Disk 1B.dsk 2017-04-21 16:13 178 Kb131
Kick Off 2 (F) (1990).zip 2017-04-21 16:13 68 Kb125
Kick Off 2 (F) (1990) [a1].zip 2017-04-21 16:13 68 Kb128
Kikstart II (UK) (1988).zip 2017-04-21 16:13 24 Kb128
Kikstart II (UK) (1988) [a1].zip 2017-04-21 16:13 23 Kb134
Killapede (UK) (1986).zip 2017-04-21 16:13 26 Kb123
Killapede (UK) (1986) [a1].zip 2017-04-21 16:13 26 Kb123
Killapede (UK) (1986) [a2].zip 2017-04-21 16:13 32 Kb134
Killapede (UK) (1986) [a3].zip 2017-04-21 16:13 30 Kb154
Killed Until Dead (UK) (1987) (Disk 1 of 2).zip 2017-04-21 16:13 50 Kb116
Killed Until Dead (UK) (1987) (Disk 2 of 2).zip 2017-04-21 16:13 62 Kb121
Killer Ball (UK) (1991).zip 2017-04-21 16:14 103 Kb123
Killer Ball (UK) (1991) [a1].zip 2017-04-21 16:13 103 Kb123
Killer Ball (UK) (1991) [a2].zip 2017-04-21 16:13 76 Kb122
Killer Ball (UK) (1991) [a3].zip 2017-04-21 16:13 96 Kb118
Killer Cobra (E).cdt 2017-04-21 16:14 49 Kb124
Killer Cobra (UK) (1987).zip 2017-04-21 16:14 27 Kb125
Killer Cobra (UK) (1987) [a1].zip 2017-04-21 16:14 27 Kb126
Killer Cobra (UK) (1987) [a2].zip 2017-04-21 16:14 31 Kb120
Killer Gorilla & Knight Lore & Laserwarp & Molecule Man & Zaxx (F).zip 2017-04-21 16:14 82 Kb78
Killer Gorilla (UK) (1984).zip 2017-04-21 16:14 19 Kb127
Killer Gorilla (UK) (1984) [a1].zip 2017-04-21 16:14 19 Kb131
Killer Gorilla (UK) (1984) [a2].zip 2017-04-21 16:14 15 Kb134
Killer Gorilla (UK) (1984) [a3].zip 2017-04-21 16:14 18 Kb127
Killer Gorilla (UK) (1984) [b1].zip 2017-04-21 16:14 19 Kb126
Killer Gorilla (UK) (1984) [b2].zip 2017-04-21 16:14 19 Kb127
Killer Ring (UK) (1987).zip 2017-04-21 16:14 16 Kb129
Killer Ring (UK) (1987) [a1].zip 2017-04-21 16:14 16 Kb129
Kiloroid (UK) (19xx).zip 2017-04-21 16:14 2 Kb122
Kim (F) (1986).zip 2017-04-21 16:14 9 Kb124
Kinetic (UK) (1987).zip 2017-04-21 16:14 35 Kb122
Kinetic (UK) (1987) [a1].zip 2017-04-21 16:14 36 Kb128
Kinetic (UK) (1987) [a2].zip 2017-04-21 16:14 35 Kb132
Kinetik (E).dsk 2017-04-21 16:14 195 Kb141
Kingdom of Hamil (UK) (1987).zip 2017-04-21 16:14 57 Kb122
Kingdoms (UK) (1985).zip 2017-04-21 16:14 5 Kb123
Kit de Telechargement - Telecharge Amstrad CPC (F).dsk 2017-04-21 16:14 217 Kb134
Kit de Telechargement pour Amstrad CPC (F).dsk 2017-04-21 16:14 191 Kb147
Klax & Meynaumede (F) & Nervous Break Down (F) & Skweek.zip 2017-04-21 16:14 97 Kb78
Klax (E).dsk 2017-04-21 16:14 172 Kb127
Klax (UK) (1990) (CPM).zip 2017-04-21 16:14 44 Kb120
Klax (UK) (1990) (CPM) [a1].zip 2017-04-21 16:14 44 Kb135
Klax (UK) (1990) (CPM Version).zip 2017-04-21 16:14 43 Kb121
Klax (UK) (1990) (CPM Version) [a1].zip 2017-04-21 16:14 43 Kb127
Klax (UK) (1990) (Cart).zip 2017-04-21 16:14 41 Kb131
Klax (UK) (1990).zip 2017-04-21 16:14 42 Kb120
Klax (UK) (1990) [a1].zip 2017-04-21 16:14 42 Kb132
Klax (UK) (1990) [h1].zip 2017-04-21 16:14 52 Kb123
Klax (UK) (1990) [h2].zip 2017-04-21 16:14 54 Kb128
Knaves and thou Prisoners (UK) (19xx).zip 2017-04-21 16:14 8 Kb119
Knight Force (F) (1989) (Disk 1 of 2).zip 2017-04-21 16:14 54 Kb126
Knight Force (F) (1989) (Disk 1 of 2) [t1].zip 2017-04-21 16:14 55 Kb120
Knight Force (F) (1989) (Disk 1 of 2) [t2] & Power Drift.zip 2017-04-21 16:14 108 Kb71
Knight Force (F) (1989) (Disk 1 of 2) [t2].zip 2017-04-21 16:14 75 Kb117
Knight Force (F) (1989) (Disk 2 of 2).zip 2017-04-21 16:14 76 Kb125
Knight Force (F) - Disk 1A.dsk 2017-04-21 16:14 456 Kb128
Knight Force (F) - Disk 1B.dsk 2017-04-21 16:14 627 Kb130
Knight Games (E) - Side A.cdt 2017-04-21 16:14 166 Kb136
Knight Games (E) - Side B.cdt 2017-04-21 16:14 142 Kb123
Knight Games (UK) (1986) (Disk 1 of 2).zip 2017-04-21 16:14 88 Kb127
Knight Games (UK) (1986) (Disk 1 of 2) [a1].zip 2017-04-21 16:14 83 Kb119
Knight Games (UK) (1986) (Disk 1 of 2) [a2].zip 2017-04-21 16:14 83 Kb118
Knight Games (UK) (1986) (Disk 1 of 2) [a3].zip 2017-04-21 16:14 103 Kb112
Knight Games (UK) (1986) (Disk 2 of 2).zip 2017-04-21 16:14 94 Kb129
Knight Games (UK) (1986) (Disk 2 of 2) [a1].zip 2017-04-21 16:14 76 Kb119
Knight Games (UK) (1986) (Disk 2 of 2) [a2].zip 2017-04-21 16:14 79 Kb116
Knight Games (UK) (1986) (Disk 2 of 2) [a3].zip 2017-04-21 16:14 109 Kb118
Knight Games (UK) (1986) [f1][t1].zip 2017-04-21 16:14 179 Kb124
Knight Lore (E).cdt 2017-04-21 16:14 42 Kb127
Knight Lore (UK) (1984).zip 2017-04-21 16:14 25 Kb129
Knight Lore (UK) (1984) [a1].zip 2017-04-21 16:14 25 Kb132
Knight Lore (UK) (1984) [a2].zip 2017-04-21 16:14 25 Kb130
Knight Moves (F) (19xx) (Disk 1 of 2).zip 2017-04-21 16:14 60 Kb126
Knight Moves (F) (19xx) (Disk 2 of 2).zip 2017-04-21 16:14 83 Kb126
Knight Orc (E) - Disk 1A.dsk 2017-04-21 16:14 194 Kb130
Knight Orc (E) - Disk 1B.dsk 2017-04-21 16:14 199 Kb132
Knight Orc (UK) (1987) (Disk 1 of 2).zip 2017-04-21 16:14 119 Kb135
Knight Orc (UK) (1987) (Disk 2 of 2).zip 2017-04-21 16:14 110 Kb129
Knight Rider (E).cdt 2017-04-21 16:14 45 Kb133
Knight Rider (UK) (1986).zip 2017-04-21 16:14 20 Kb122
Knight Rider (UK) (1986) [h1].zip 2017-04-21 16:14 32 Kb126
Knight Rider (UK) (1986) [h2].zip 2017-04-21 16:14 21 Kb128
Knight Tyme (E).cdt 2017-04-21 16:14 57 Kb131
Knight Tyme (UK) (1986).zip 2017-04-21 16:14 31 Kb133
Knight Tyme (UK) (1986) [a1].zip 2017-04-21 16:14 31 Kb128
Knight Tyme (UK) (1986) [t1].zip 2017-04-21 16:14 31 Kb120
Knightmare (E).dsk 2017-04-21 16:14 213 Kb139
Knightmare (UK) (1987).zip 2017-04-21 16:14 29 Kb124
Knightmare (UK) (1987) [a1].zip 2017-04-21 16:14 30 Kb122
Knightmare (UK) (1987) [a2].zip 2017-04-21 16:14 30 Kb130
Knightmare (UK) (1987) [t1].zip 2017-04-21 16:14 33 Kb126
Know (G).dsk 2017-04-21 16:14 192 Kb144
Kobayashi Naru (UK) (19xx).zip 2017-04-21 16:14 31 Kb134
Kobayashi Naru (UK) (1987).zip 2017-04-21 16:14 31 Kb139
Kobayashi Naru (UK) (1987) [a1].zip 2017-04-21 16:14 31 Kb126
Kobayashi Naru (UK) (1987) [a2].zip 2017-04-21 16:14 48 Kb145
Kokotoni Wilf (UK) (19xx).zip 2017-04-21 16:14 137 Kb134
Kokotoni Wilf (UK) (19xx) [a1].zip 2017-04-21 16:14 35 Kb134
Kokotoni Wilf (UK) (19xx) [f1][t1].zip 2017-04-21 16:14 37 Kb124
Konami's Golf (UK) (1986).zip 2017-04-21 16:14 24 Kb121
Konami's Golf (UK) (1986) [a1].zip 2017-04-21 16:14 24 Kb126
Konami's Golf (UK) (1986) [a2].zip 2017-04-21 16:14 26 Kb126
Konami Coin-op Hits (UK) (19xx) (Disk 1 of 2).zip 2017-04-21 16:14 50 Kb127
Konami Coin-op Hits (UK) (19xx) (Disk 1 of 2) [a1].zip 2017-04-21 16:14 50 Kb116
Konami Coin-op Hits (UK) (19xx) (Disk 2 of 2).zip 2017-04-21 16:14 65 Kb121
Konami Coin-op Hits (UK) (19xx) (Disk 2 of 2) [a1].zip 2017-04-21 16:14 65 Kb139
Konami Coin-op Hits (UK) (19xx) (Disk 2 of 2) [a2].zip 2017-04-21 16:14 65 Kb121
Kong Strikes Back (UK) (1985).zip 2017-04-21 16:14 21 Kb140
Kong Strikes Back (UK) (1985) [a1].zip 2017-04-21 16:14 21 Kb137
Kong Strikes Back (UK) (1985) [a2].zip 2017-04-21 16:14 23 Kb127
Koronis Rift (E).dsk 2017-04-21 16:14 186 Kb134
Koronis Rift (UK) (1987).zip 2017-04-21 16:14 57 Kb129
Krakout (E).cdt 2017-04-21 16:14 64 Kb140
Krakout (E).dsk 2017-04-21 16:14 171 Kb134
Krakout (UK) (1987).zip 2017-04-21 16:14 31 Kb132
Krakout (UK) (1987) [h1].zip 2017-04-21 16:14 34 Kb130
Kristal (F).dsk 2017-04-21 16:14 191 Kb133
Kristal (UK) (1985).zip 2017-04-21 16:14 16 Kb136
Kristax (UK) (1989).zip 2017-04-21 16:14 9 Kb132
Krypton Factor (UK) (1987) (Disk 1 of 2).zip 2017-04-21 16:14 52 Kb122
Krypton Factor (UK) (1987) (Disk 1 of 2) [a1].zip 2017-04-21 16:14 47 Kb130
Krypton Factor (UK) (1987) (Disk 2 of 2).zip 2017-04-21 16:14 5 Kb126
Krypton Factor (UK) (1987) (Disk 2 of 2) [a1].zip 2017-04-21 16:14 21 Kb123
Kung-Fu (UK) (1986).zip 2017-04-21 16:14 19 Kb128
Kung-Fu Master (E).dsk 2017-04-21 16:14 191 Kb126
Kung-Fu Master (UK) (1986).zip 2017-04-21 16:14 28 Kb136
Kung-Fu Master (UK) (1986) [h1].zip 2017-04-21 16:14 22 Kb127
Kwah (UK) (1987).zip 2017-04-21 16:14 36 Kb116
Kwik Snax (E).cdt 2017-04-21 16:14 65 Kb142
Kwik Snax (UK) (1990).zip 2017-04-21 16:14 22 Kb123
Kwik Snax (UK) (1990) [f1].zip 2017-04-21 16:14 33 Kb135
Kwik Snax (UK) (1990) [h1].zip 2017-04-21 16:14 41 Kb129
Kwik Snax (UK) (1990) [t1].zip 2017-04-21 16:14 33 Kb130
kobayashi Naru (E).cdt 2017-04-21 16:14 74 Kb130
180 Files
-JavaCPC -demo -emu -j-cpc_ani -tools 0-9 A B C D E F G H I J K L M N O P Q R S T U V W X Y Z roms